Time;durP1;ratioP1;P1;durP2;ratioP2;P2;SDS_P1;SDS_P2;PMS_P1;PMS_P2;Temp;Humidity;BMP_temperature;BMP_pressure;BME280_temperature;BME280_humidity;BME280_pressure;Samples;Min_cycle;Max_cycle;Signal;HPM_P1;HPM_P2
2022/01/08 00:00:40;;;;;;;11.20;3.70;;;;;;;;;;5106345;28;20044;-70
2022/01/08 00:03:06;;;;;;;11.75;3.45;;;;;;;;;;5106937;28;20045;-70
2022/01/08 00:05:33;;;;;;;10.38;3.75;;;;;;;;;;5107008;28;20047;-70
2022/01/08 00:07:59;;;;;;;8.93;3.70;;;;;;;;;;5106172;28;20127;-70
2022/01/08 00:10:25;;;;;;;9.27;3.90;;;;;;;;;;5106779;28;20044;-70
2022/01/08 00:12:51;;;;;;;9.35;3.67;;;;;;;;;;5106582;28;20139;-71
2022/01/08 00:15:18;;;;;;;8.27;3.95;;;;;;;;;;5106073;28;20079;-71
2022/01/08 00:17:44;;;;;;;23.83;9.15;;;;;;;;;;5106637;28;20040;-71
2022/01/08 00:20:10;;;;;;;24.42;9.73;;;;;;;;;;5073981;28;20040;-71
2022/01/08 00:22:36;;;;;;;8.90;4.20;;;;;;;;;;5105869;28;20718;-71
2022/01/08 00:25:03;;;;;;;8.23;3.92;;;;;;;;;;5106324;28;20055;-71
2022/01/08 00:27:29;;;;;;;11.25;4.10;;;;;;;;;;5087199;28;20064;-71
2022/01/08 00:29:56;;;;;;;8.98;4.45;;;;;;;;;;5052144;28;20041;-71
2022/01/08 00:32:22;;;;;;;9.05;3.70;;;;;;;;;;5054047;28;20068;-71
2022/01/08 00:34:48;;;;;;;8.30;3.67;;;;;;;;;;5052495;28;20487;-71
2022/01/08 00:37:14;;;;;;;9.70;4.15;;;;;;;;;;5051747;28;20072;-71
2022/01/08 00:39:40;;;;;;;13.50;4.50;;;;;;;;;;5053649;28;20041;-71
2022/01/08 00:42:06;;;;;;;8.45;4.20;;;;;;;;;;5052219;28;20424;-70
2022/01/08 00:44:32;;;;;;;7.32;4.20;;;;;;;;;;5052856;28;20045;-71
2022/01/08 00:46:58;;;;;;;10.93;4.47;;;;;;;;;;5052165;28;20053;-70
2022/01/08 00:49:25;;;;;;;11.15;4.50;;;;;;;;;;5052073;28;20045;-70
2022/01/08 00:51:51;;;;;;;11.10;4.13;;;;;;;;;;5051468;28;20124;-70
2022/01/08 00:54:18;;;;;;;9.90;4.63;;;;;;;;;;5051908;28;20048;-70
2022/01/08 00:56:44;;;;;;;9.70;4.90;;;;;;;;;;5051995;28;20049;-70
2022/01/08 00:59:10;;;;;;;12.63;4.50;;;;;;;;;;5051268;28;20099;-70
2022/01/08 01:01:36;;;;;;;9.93;4.57;;;;;;;;;;5053350;28;20090;-70
2022/01/08 01:04:02;;;;;;;9.85;4.68;;;;;;;;;;5051838;28;20124;-71
2022/01/08 01:06:28;;;;;;;12.38;5.07;;;;;;;;;;5067783;28;20087;-70
2022/01/08 01:08:54;;;;;;;13.13;6.32;;;;;;;;;;5051755;28;20052;-70
2022/01/08 01:11:20;;;;;;;13.68;5.28;;;;;;;;;;5051091;28;20091;-70
2022/01/08 01:13:46;;;;;;;14.10;5.63;;;;;;;;;;5050981;28;20435;-70
2022/01/08 01:16:12;;;;;;;10.23;6.03;;;;;;;;;;5051612;28;20041;-70
2022/01/08 01:18:38;;;;;;;10.50;6.10;;;;;;;;;;5051925;28;20144;-70
2022/01/08 01:21:05;;;;;;;12.40;5.88;;;;;;;;;;5050946;28;20128;-70
2022/01/08 01:23:36;;;;;;;15.15;6.70;;;;;;;;;;5051378;28;20463;-70
2022/01/08 01:26:06;;;;;;;9.98;6.38;;;;;;;;;;5058266;28;20123;-70
2022/01/08 01:28:58;;;;;;;11.73;6.70;;;;;;;;;;5072345;28;20568;-70
2022/01/08 01:47:13;;;;;;;17.20;7.28;;;;;;;;;;5105088;28;20059;-70
2022/01/08 01:49:45;;;;;;;17.30;8.32;;;;;;;;;;5104176;28;20055;-71
2022/01/08 01:52:14;;;;;;;15.57;7.37;;;;;;;;;;5105275;28;20122;-70
2022/01/08 01:54:40;;;;;;;15.13;8.13;;;;;;;;;;5104975;28;20475;-70
2022/01/08 01:57:07;;;;;;;16.73;7.22;;;;;;;;;;5103998;28;20050;-70
2022/01/08 01:59:34;;;;;;;14.20;7.28;;;;;;;;;;5104662;28;20403;-70
2022/01/08 02:02:00;;;;;;;15.38;8.05;;;;;;;;;;5104829;28;20048;-70
2022/01/08 02:04:26;;;;;;;15.48;8.50;;;;;;;;;;5103765;28;20125;-70
2022/01/08 02:06:53;;;;;;;20.73;8.43;;;;;;;;;;5104547;28;20402;-70
2022/01/08 02:09:19;;;;;;;17.00;8.18;;;;;;;;;;5104618;28;20429;-70
2022/01/08 02:12:17;;;;;;;22.88;8.45;;;;;;;;;;5104200;28;20395;-70
2022/01/08 02:14:45;;;;;;;14.18;8.25;;;;;;;;;;5066442;28;20048;-70
2022/01/08 02:17:11;;;;;;;17.83;9.38;;;;;;;;;;5104350;28;20094;-70
2022/01/08 02:19:38;;;;;;;17.50;8.07;;;;;;;;;;5103897;28;20036;-70
2022/01/08 02:22:05;;;;;;;19.33;8.68;;;;;;;;;;5103486;28;20085;-70
2022/01/08 02:24:32;;;;;;;14.10;8.10;;;;;;;;;;5104208;28;20060;-70
2022/01/08 02:26:58;;;;;;;15.68;8.35;;;;;;;;;;5088593;28;20061;-70
2022/01/08 02:29:24;;;;;;;15.63;8.90;;;;;;;;;;5050241;28;20102;-70
2022/01/08 02:31:56;;;;;;;13.43;6.95;;;;;;;;;;5050360;28;20365;-70
2022/01/08 02:34:22;;;;;;;11.40;7.35;;;;;;;;;;5049864;28;20136;-70
2022/01/08 02:36:48;;;;;;;14.75;7.65;;;;;;;;;;5050148;28;20177;-70
2022/01/08 02:39:14;;;;;;;14.20;7.65;;;;;;;;;;5067026;28;20128;-70
2022/01/08 02:41:40;;;;;;;12.35;7.03;;;;;;;;;;5049776;28;20129;-70
2022/01/08 02:44:07;;;;;;;14.65;7.72;;;;;;;;;;5050128;28;20043;-70
2022/01/08 02:46:33;;;;;;;16.35;7.63;;;;;;;;;;5067133;28;20049;-70
2022/01/08 02:48:59;;;;;;;15.05;7.55;;;;;;;;;;5049446;28;20045;-70
2022/01/08 02:51:25;;;;;;;11.50;6.72;;;;;;;;;;5050142;28;20048;-70
2022/01/08 02:53:52;;;;;;;15.95;7.55;;;;;;;;;;5066799;28;20044;-70
2022/01/08 02:56:18;;;;;;;19.45;7.68;;;;;;;;;;5049262;28;20459;-70
2022/01/08 02:58:44;;;;;;;14.35;7.70;;;;;;;;;;5050208;28;20532;-70
2022/01/08 03:01:10;;;;;;;11.63;6.97;;;;;;;;;;5050161;28;20083;-70
2022/01/08 03:03:36;;;;;;;16.42;7.10;;;;;;;;;;5049298;28;20076;-70
2022/01/08 03:06:02;;;;;;;13.00;7.15;;;;;;;;;;5049887;28;20033;-70
2022/01/08 03:08:28;;;;;;;10.50;6.82;;;;;;;;;;5050184;28;20515;-70
2022/01/08 03:10:55;;;;;;;10.60;6.50;;;;;;;;;;5049515;28;20486;-70
2022/01/08 03:13:21;;;;;;;13.65;6.47;;;;;;;;;;5051242;28;20056;-70
2022/01/08 03:15:48;;;;;;;11.43;6.63;;;;;;;;;;5049709;28;20047;-70
2022/01/08 03:18:14;;;;;;;12.45;6.47;;;;;;;;;;5049190;28;20045;-70
2022/01/08 03:20:47;;;;;;;13.02;6.47;;;;;;;;;;5049730;28;20415;-70
2022/01/08 03:23:16;;;;;;;12.90;6.93;;;;;;;;;;5049648;28;20037;-70
2022/01/08 03:25:42;;;;;;;13.38;5.95;;;;;;;;;;5069731;28;20044;-70
2022/01/08 03:28:08;;;;;;;14.50;5.75;;;;;;;;;;5071127;28;20080;-70
2022/01/08 03:30:34;;;;;;;14.35;6.00;;;;;;;;;;5103616;28;20461;-70
2022/01/08 03:33:01;;;;;;;9.43;5.45;;;;;;;;;;5102917;28;20437;-70
2022/01/08 03:35:27;;;;;;;11.88;6.32;;;;;;;;;;5107837;28;20479;-70
2022/01/08 03:37:53;;;;;;;9.38;5.50;;;;;;;;;;5107381;28;20044;-70
2022/01/08 03:40:20;;;;;;;10.75;5.38;;;;;;;;;;5090140;28;20072;-70
2022/01/08 03:42:46;;;;;;;8.52;5.50;;;;;;;;;;5089914;28;20121;-70
2022/01/08 03:45:12;;;;;;;11.25;5.45;;;;;;;;;;5107606;28;20134;-70
2022/01/08 03:50:13;;;;;;;11.88;5.38;;;;;;;;;;5074848;28;20052;-70
2022/01/08 03:52:39;;;;;;;9.07;4.40;;;;;;;;;;5107075;28;20032;-70
2022/01/08 03:55:06;;;;;;;14.88;6.10;;;;;;;;;;5089907;28;20052;-70
2022/01/08 03:57:32;;;;;;;14.38;6.15;;;;;;;;;;5106623;28;20090;-70
2022/01/08 03:59:58;;;;;;;14.73;6.10;;;;;;;;;;5106864;28;20078;-70
2022/01/08 04:02:24;;;;;;;9.15;5.82;;;;;;;;;;5107272;28;20045;-70
2022/01/08 04:04:50;;;;;;;15.82;5.68;;;;;;;;;;5089231;28;20123;-70
2022/01/08 04:07:16;;;;;;;10.10;5.40;;;;;;;;;;5074312;28;20083;-70
2022/01/08 04:09:44;;;;;;;12.77;5.90;;;;;;;;;;5106795;28;20044;-70
2022/01/08 04:12:15;;;;;;;14.20;7.13;;;;;;;;;;5106024;28;20044;-70
2022/01/08 04:14:55;;;;;;;11.63;5.20;;;;;;;;;;5074272;28;20072;-70
2022/01/08 04:17:21;;;;;;;18.15;6.15;;;;;;;;;;5106168;28;20124;-70
2022/01/08 04:19:47;;;;;;;14.15;6.00;;;;;;;;;;5106564;28;20043;-70
2022/01/08 04:22:14;;;;;;;14.00;5.80;;;;;;;;;;5106715;28;20036;-70
2022/01/08 04:24:41;;;;;;;15.00;6.22;;;;;;;;;;5073774;28;20127;-70
2022/01/08 04:27:07;;;;;;;11.52;5.90;;;;;;;;;;5089766;28;20448;-70
2022/01/08 04:29:33;;;;;;;17.17;7.47;;;;;;;;;;5052520;28;20070;-70
2022/01/08 04:31:59;;;;;;;15.50;6.30;;;;;;;;;;5053759;28;20056;-70
2022/01/08 04:34:26;;;;;;;17.55;7.50;;;;;;;;;;5052150;28;20530;-70
2022/01/08 04:36:52;;;;;;;15.20;5.90;;;;;;;;;;5052293;28;20057;-71
2022/01/08 04:39:18;;;;;;;19.25;7.45;;;;;;;;;;5052402;28;20041;-70
2022/01/08 04:41:45;;;;;;;11.00;6.68;;;;;;;;;;5051771;28;20065;-70
2022/01/08 04:44:11;;;;;;;17.33;7.75;;;;;;;;;;5052243;28;20464;-70
2022/01/08 04:46:38;;;;;;;12.65;7.63;;;;;;;;;;5052851;28;20032;-70
2022/01/08 04:49:05;;;;;;;19.85;7.10;;;;;;;;;;5051647;28;20395;-70
2022/01/08 04:51:31;;;;;;;14.90;7.70;;;;;;;;;;5053814;28;20123;-75
2022/01/08 04:53:57;;;;;;;18.02;7.88;;;;;;;;;;5052061;28;20064;-70
2022/01/08 04:56:23;;;;;;;14.95;7.50;;;;;;;;;;5052732;28;20505;-70
2022/01/08 04:58:49;;;;;;;13.23;7.53;;;;;;;;;;5052096;28;20041;-70
2022/01/08 05:01:17;;;;;;;13.40;7.22;;;;;;;;;;5052230;28;20087;-70
2022/01/08 05:03:43;;;;;;;17.08;7.10;;;;;;;;;;5051185;28;20040;-70
2022/01/08 05:06:09;;;;;;;14.13;7.35;;;;;;;;;;5052090;28;20437;-70
2022/01/08 05:08:35;;;;;;;13.75;7.32;;;;;;;;;;5051828;28;20033;-70
2022/01/08 05:11:02;;;;;;;16.15;7.95;;;;;;;;;;5051105;28;20048;-71
2022/01/08 05:13:28;;;;;;;17.63;7.15;;;;;;;;;;5051659;28;20045;-71
2022/01/08 05:15:54;;;;;;;13.82;6.68;;;;;;;;;;5051705;28;20112;-71
2022/01/08 05:18:21;;;;;;;13.95;7.03;;;;;;;;;;5051104;28;20373;-70
2022/01/08 05:20:56;;;;;;;13.50;6.32;;;;;;;;;;5051718;28;20063;-70
2022/01/08 05:23:22;;;;;;;17.38;7.35;;;;;;;;;;5051633;28;20507;-70
2022/01/08 05:25:48;;;;;;;16.70;6.95;;;;;;;;;;5055510;28;20067;-70
2022/01/08 05:28:14;;;;;;;12.88;6.88;;;;;;;;;;5105303;28;20041;-70
2022/01/08 05:30:40;;;;;;;15.23;7.03;;;;;;;;;;5072856;28;20040;-70
2022/01/08 05:33:06;;;;;;;11.75;6.30;;;;;;;;;;5104404;28;20048;-70
2022/01/08 05:35:32;;;;;;;16.52;6.75;;;;;;;;;;5088261;28;20131;-70
2022/01/08 05:37:58;;;;;;;18.65;6.18;;;;;;;;;;5104983;28;20036;-70
2022/01/08 05:40:24;;;;;;;11.95;5.93;;;;;;;;;;5104524;28;20033;-70
2022/01/08 05:42:50;;;;;;;19.13;6.47;;;;;;;;;;5072290;28;20041;-70
2022/01/08 05:45:17;;;;;;;14.32;5.95;;;;;;;;;;5072405;28;20033;-70
2022/01/08 05:47:43;;;;;;;14.15;6.03;;;;;;;;;;5104285;28;20048;-71
2022/01/08 05:50:09;;;;;;;12.00;5.43;;;;;;;;;;5104833;28;20051;-70
2022/01/08 05:52:35;;;;;;;10.35;5.35;;;;;;;;;;5104754;28;20089;-70
2022/01/08 05:55:01;;;;;;;11.98;5.22;;;;;;;;;;5087237;28;20048;-70
2022/01/08 05:57:27;;;;;;;12.50;5.22;;;;;;;;;;5104472;28;20041;-70
2022/01/08 05:59:53;;;;;;;12.70;4.88;;;;;;;;;;5104812;28;20044;-70
2022/01/08 06:02:19;;;;;;;17.05;5.63;;;;;;;;;;5086950;28;20036;-70
2022/01/08 06:04:46;;;;;;;13.60;5.13;;;;;;;;;;5071998;28;20486;-71
2022/01/08 06:07:12;;;;;;;16.20;5.00;;;;;;;;;;5072222;28;20384;-71
2022/01/08 06:09:38;;;;;;;13.90;5.15;;;;;;;;;;5103868;28;20118;-71
2022/01/08 06:12:04;;;;;;;12.23;4.57;;;;;;;;;;5104620;28;20115;-70
2022/01/08 06:14:30;;;;;;;12.55;5.00;;;;;;;;;;5104293;28;20048;-70
2022/01/08 06:16:56;;;;;;;9.70;4.75;;;;;;;;;;5103832;28;20047;-70
2022/01/08 06:19:22;;;;;;;13.60;4.70;;;;;;;;;;5104460;28;20079;-70
2022/01/08 06:21:48;;;;;;;14.57;4.72;;;;;;;;;;5104310;28;20055;-71
2022/01/08 06:24:14;;;;;;;11.30;4.95;;;;;;;;;;5103482;28;20040;-70
2022/01/08 06:26:40;;;;;;;8.23;4.50;;;;;;;;;;5091645;28;20403;-70
2022/01/08 06:29:06;;;;;;;8.30;4.20;;;;;;;;;;5050564;28;20553;-70
2022/01/08 06:31:33;;;;;;;9.77;4.30;;;;;;;;;;5050074;28;20480;-70
2022/01/08 06:33:59;;;;;;;15.10;4.88;;;;;;;;;;5066883;28;20044;-70
2022/01/08 06:36:25;;;;;;;11.15;4.90;;;;;;;;;;5050255;28;20048;-70
2022/01/08 06:38:51;;;;;;;12.50;5.10;;;;;;;;;;5049568;28;20158;-70
2022/01/08 06:41:17;;;;;;;13.02;4.82;;;;;;;;;;5067173;28;20055;-70
2022/01/08 06:43:43;;;;;;;14.02;4.53;;;;;;;;;;5049976;28;20041;-71
2022/01/08 06:46:10;;;;;;;9.18;5.55;;;;;;;;;;5050693;28;20095;-70
2022/01/08 06:48:36;;;;;;;15.63;5.25;;;;;;;;;;5050042;28;20098;-70
2022/01/08 06:51:02;;;;;;;12.45;4.97;;;;;;;;;;5067179;28;20538;-70
2022/01/08 06:53:29;;;;;;;12.45;4.63;;;;;;;;;;5083018;28;20049;-70
2022/01/08 06:55:55;;;;;;;12.05;4.50;;;;;;;;;;5050137;28;20616;-70
2022/01/08 06:58:21;;;;;;;13.13;5.40;;;;;;;;;;5049897;28;20037;-70
2022/01/08 07:00:47;;;;;;;13.15;4.93;;;;;;;;;;5049374;28;20048;-70
2022/01/08 07:03:13;;;;;;;13.13;4.90;;;;;;;;;;5051365;28;20037;-70
2022/01/08 07:05:40;;;;;;;16.23;5.72;;;;;;;;;;5049949;28;20048;-70
2022/01/08 07:08:06;;;;;;;13.52;5.57;;;;;;;;;;5049645;28;20041;-70
2022/01/08 07:10:32;;;;;;;15.07;5.20;;;;;;;;;;5055592;28;20123;-70
2022/01/08 07:12:59;;;;;;;15.00;5.10;;;;;;;;;;5053985;28;20063;-70
2022/01/08 07:15:25;;;;;;;10.70;5.35;;;;;;;;;;5054890;28;20567;-70
2022/01/08 07:17:51;;;;;;;7.70;4.03;;;;;;;;;;5053627;28;20037;-70
2022/01/08 07:20:17;;;;;;;12.30;5.00;;;;;;;;;;5054132;28;20565;-70
2022/01/08 07:22:43;;;;;;;15.02;5.50;;;;;;;;;;5053045;28;20087;-70
2022/01/08 07:25:10;;;;;;;14.10;5.28;;;;;;;;;;5054800;28;20451;-70
2022/01/08 07:27:36;;;;;;;11.70;5.15;;;;;;;;;;5090712;28;20044;-70
2022/01/08 07:30:03;;;;;;;12.18;4.45;;;;;;;;;;5074528;28;20155;-70
2022/01/08 07:32:29;;;;;;;12.05;5.07;;;;;;;;;;5075171;28;20044;-70
2022/01/08 07:34:55;;;;;;;11.70;4.88;;;;;;;;;;5074930;28;20120;-70
2022/01/08 07:37:22;;;;;;;12.38;4.53;;;;;;;;;;5106610;28;20041;-70
2022/01/08 07:39:48;;;;;;;12.65;4.68;;;;;;;;;;5107302;28;20052;-70
2022/01/08 07:42:14;;;;;;;14.45;4.38;;;;;;;;;;5107441;28;20085;-70
2022/01/08 07:44:40;;;;;;;11.25;4.78;;;;;;;;;;5073831;28;20123;-70
2022/01/08 07:47:06;;;;;;;10.60;4.40;;;;;;;;;;5107140;28;20044;-70
2022/01/08 07:49:32;;;;;;;10.77;4.22;;;;;;;;;;5107509;28;20094;-70
2022/01/08 07:51:58;;;;;;;16.75;5.35;;;;;;;;;;5106967;28;20055;-70
2022/01/08 07:54:25;;;;;;;10.63;4.38;;;;;;;;;;5074450;28;20048;-70
2022/01/08 07:56:51;;;;;;;12.75;4.65;;;;;;;;;;5107416;28;20102;-70
2022/01/08 07:59:17;;;;;;;11.60;4.20;;;;;;;;;;5106878;28;20050;-70
2022/01/08 08:01:43;;;;;;;10.48;3.90;;;;;;;;;;5073806;28;20544;-70
2022/01/08 08:04:09;;;;;;;12.52;3.88;;;;;;;;;;5106932;28;20473;-70
2022/01/08 08:06:42;;;;;;;12.27;4.10;;;;;;;;;;5090135;28;20048;-70
2022/01/08 08:09:08;;;;;;;14.70;4.00;;;;;;;;;;5106428;28;20051;-70
2022/01/08 08:11:34;;;;;;;9.60;3.40;;;;;;;;;;5106866;28;20040;-70
2022/01/08 08:14:00;;;;;;;13.15;4.15;;;;;;;;;;5106889;28;20076;-70
2022/01/08 08:16:27;;;;;;;11.70;3.65;;;;;;;;;;5106347;28;20052;-70
2022/01/08 08:18:53;;;;;;;9.65;3.85;;;;;;;;;;5106957;28;20037;-70
2022/01/08 08:21:19;;;;;;;12.95;4.90;;;;;;;;;;5074178;28;20040;-70
2022/01/08 08:23:45;;;;;;;11.00;3.70;;;;;;;;;;5105715;28;20048;-70
2022/01/08 08:26:11;;;;;;;10.93;3.92;;;;;;;;;;5072545;28;20090;-70
2022/01/08 08:28:37;;;;;;;11.45;4.15;;;;;;;;;;5072803;28;20403;-70
2022/01/08 08:31:04;;;;;;;14.50;4.10;;;;;;;;;;5072225;28;20049;-70
2022/01/08 08:33:30;;;;;;;17.05;4.32;;;;;;;;;;5072718;28;20562;-70
2022/01/08 08:35:56;;;;;;;12.32;4.00;;;;;;;;;;5072586;28;20059;-70
2022/01/08 08:38:22;;;;;;;9.70;4.10;;;;;;;;;;5071698;28;20098;-70
2022/01/08 08:40:51;;;;;;;12.80;4.40;;;;;;;;;;5073978;28;20029;-70
2022/01/08 08:43:17;;;;;;;9.23;3.70;;;;;;;;;;5072278;28;20483;-70
2022/01/08 08:45:43;;;;;;;17.42;4.95;;;;;;;;;;5071654;28;20079;-70
2022/01/08 08:48:09;;;;;;;9.02;3.70;;;;;;;;;;5073869;28;20713;-70
2022/01/08 08:50:35;;;;;;;15.68;4.70;;;;;;;;;;5072230;28;20049;-70
2022/01/08 08:53:01;;;;;;;12.98;4.70;;;;;;;;;;5072619;28;20076;-70
2022/01/08 08:55:27;;;;;;;13.07;4.43;;;;;;;;;;5073750;28;20044;-70
2022/01/08 08:57:53;;;;;;;10.60;4.82;;;;;;;;;;5071975;28;20550;-70
2022/01/08 09:00:19;;;;;;;10.40;4.53;;;;;;;;;;5072696;28;20075;-70
2022/01/08 09:02:45;;;;;;;13.93;4.53;;;;;;;;;;5071932;28;20044;-70
2022/01/08 09:05:11;;;;;;;8.20;3.85;;;;;;;;;;5072083;28;20123;-70
2022/01/08 09:07:38;;;;;;;11.15;4.10;;;;;;;;;;5071290;28;20051;-70
2022/01/08 09:10:05;;;;;;;8.38;4.00;;;;;;;;;;5073307;28;20099;-70
2022/01/08 09:12:32;;;;;;;13.55;4.20;;;;;;;;;;5071957;28;20040;-70
2022/01/08 09:14:58;;;;;;;10.43;4.13;;;;;;;;;;5054677;28;20048;-70
2022/01/08 09:17:25;;;;;;;11.98;4.20;;;;;;;;;;5071789;28;20063;-70
2022/01/08 09:19:51;;;;;;;15.65;4.30;;;;;;;;;;5071929;28;20044;-70
2022/01/08 09:22:17;;;;;;;10.43;4.20;;;;;;;;;;5071120;28;20041;-70
2022/01/08 09:25:06;;;;;;;12.77;4.40;;;;;;;;;;5054780;28;20067;-70
2022/01/08 09:27:32;;;;;;;8.40;4.50;;;;;;;;;;5072712;28;20051;-70
2022/01/08 09:30:03;;;;;;;12.38;5.20;;;;;;;;;;5104689;28;20040;-70
2022/01/08 09:32:30;;;;;;;9.77;4.80;;;;;;;;;;5088005;28;20052;-70
2022/01/08 09:34:58;;;;;;;14.50;4.20;;;;;;;;;;5088225;28;20426;-70
2022/01/08 09:37:26;;;;;;;11.90;5.07;;;;;;;;;;5104781;28;20732;-70
2022/01/08 09:39:52;;;;;;;15.90;5.28;;;;;;;;;;5088279;28;20045;-70
2022/01/08 09:42:22;;;;;;;16.25;5.55;;;;;;;;;;5105031;28;20433;-70
2022/01/08 09:45:03;;;;;;;15.93;6.03;;;;;;;;;;5104280;28;20067;-70
2022/01/08 09:47:32;;;;;;;11.63;4.88;;;;;;;;;;5105126;28;20053;-70
2022/01/08 09:49:59;;;;;;;17.55;6.05;;;;;;;;;;5104933;28;20460;-70
2022/01/08 09:52:25;;;;;;;17.10;5.72;;;;;;;;;;5104318;28;20041;-70
2022/01/08 09:54:51;;;;;;;14.57;6.68;;;;;;;;;;5104801;28;20102;-70
2022/01/08 09:57:17;;;;;;;15.57;6.63;;;;;;;;;;5087670;28;20050;-70
2022/01/08 09:59:44;;;;;;;15.48;6.07;;;;;;;;;;5104128;28;20036;-70
2022/01/08 10:02:11;;;;;;;15.38;5.95;;;;;;;;;;5103460;28;20052;-70
2022/01/08 10:04:40;;;;;;;17.90;6.90;;;;;;;;;;5104617;28;20075;-70
2022/01/08 10:07:40;;;;;;;11.32;6.40;;;;;;;;;;5104360;28;20048;-70
2022/01/08 10:10:13;;;;;;;12.82;6.28;;;;;;;;;;5066142;28;20079;-70
2022/01/08 10:12:41;;;;;;;14.98;6.53;;;;;;;;;;5103758;28;20178;-70
2022/01/08 10:17:53;;;;;;;19.30;7.13;;;;;;;;;;5104514;28;20170;-70
2022/01/08 10:20:27;;;;;;;13.20;7.15;;;;;;;;;;5103569;28;20051;-70
2022/01/08 10:23:19;;;;;;;17.00;7.50;;;;;;;;;;5104377;28;20040;-70
2022/01/08 10:26:05;;;;;;;25.88;8.52;;;;;;;;;;5064702;28;20056;-70
2022/01/08 10:28:52;;;;;;;12.05;7.70;;;;;;;;;;5049595;28;20037;-70
2022/01/08 10:31:28;;;;;;;14.23;7.50;;;;;;;;;;5033745;28;20037;-70
2022/01/08 10:34:06;;;;;;;15.57;7.82;;;;;;;;;;5050263;28;20041;-70
2022/01/08 10:36:36;;;;;;;22.13;8.30;;;;;;;;;;5049927;28;20517;-70
2022/01/08 10:39:08;;;;;;;24.70;8.38;;;;;;;;;;5050617;28;20041;-70
2022/01/08 10:42:06;;;;;;;12.45;7.38;;;;;;;;;;5051644;28;20045;-70
2022/01/08 10:44:35;;;;;;;14.57;8.35;;;;;;;;;;5049351;28;20040;-70
2022/01/08 10:47:10;;;;;;;18.50;8.05;;;;;;;;;;5053293;28;20045;-70
2022/01/08 10:50:00;;;;;;;16.65;7.18;;;;;;;;;;5049682;28;20037;-70
2022/01/08 10:52:27;;;;;;;18.98;8.25;;;;;;;;;;5049775;28;20064;-70
2022/01/08 10:54:57;;;;;;;12.77;7.22;;;;;;;;;;5050194;28;20075;-70
2022/01/08 10:57:40;;;;;;;14.43;7.60;;;;;;;;;;5066144;28;20045;-70
2022/01/08 11:00:09;;;;;;;14.10;7.85;;;;;;;;;;5050099;28;20049;-70
2022/01/08 11:02:35;;;;;;;14.77;7.43;;;;;;;;;;5050277;28;20460;-71
2022/01/08 11:05:12;;;;;;;16.65;7.68;;;;;;;;;;5049579;28;20055;-71
2022/01/08 11:07:41;;;;;;;17.23;7.15;;;;;;;;;;5050872;28;20061;-70
2022/01/08 11:10:19;;;;;;;16.33;7.32;;;;;;;;;;5067105;28;20049;-70
2022/01/08 11:12:47;;;;;;;16.98;6.95;;;;;;;;;;5049257;28;20080;-70
2022/01/08 11:17:47;;;;;;;16.35;7.50;;;;;;;;;;5083547;28;20053;-70
2022/01/08 11:20:15;;;;;;;16.63;7.72;;;;;;;;;;5049209;28;20052;-70
2022/01/08 11:22:42;;;;;;;16.45;8.00;;;;;;;;;;5049510;28;20063;-70
2022/01/08 11:25:23;;;;;;;16.20;7.07;;;;;;;;;;5083175;28;20061;-70
2022/01/08 11:27:49;;;;;;;15.00;7.30;;;;;;;;;;5049119;28;20045;-71
2022/01/08 11:30:41;;;;;;;16.60;7.50;;;;;;;;;;5049992;28;20476;-70
2022/01/08 11:33:13;;;;;;;17.17;7.03;;;;;;;;;;5049719;28;20056;-70
2022/01/08 11:35:41;;;;;;;17.15;7.97;;;;;;;;;;5049130;28;20127;-70
2022/01/08 11:38:08;;;;;;;13.60;7.65;;;;;;;;;;5049559;28;20577;-70
2022/01/08 11:40:37;;;;;;;15.73;8.43;;;;;;;;;;5033541;28;20351;-70
2022/01/08 11:43:04;;;;;;;16.75;8.15;;;;;;;;;;5048883;28;20044;-70
2022/01/08 11:45:39;;;;;;;20.33;8.90;;;;;;;;;;5050822;28;20045;-70
2022/01/08 11:48:20;;;;;;;17.33;8.63;;;;;;;;;;5051119;28;20768;-71
2022/01/08 11:50:53;;;;;;;15.27;8.25;;;;;;;;;;5032363;28;20040;-71
2022/01/08 11:53:32;;;;;;;19.55;9.23;;;;;;;;;;5049438;28;20062;-70
2022/01/08 11:56:00;;;;;;;17.83;9.45;;;;;;;;;;5052864;28;20041;-70
2022/01/08 11:58:47;;;;;;;17.85;10.38;;;;;;;;;;5052737;28;20053;-70
2022/01/08 12:01:14;;;;;;;22.33;10.93;;;;;;;;;;5054359;28;20041;-70
2022/01/08 12:03:44;;;;;;;18.40;10.73;;;;;;;;;;5052265;28;20179;-70
2022/01/08 12:06:41;;;;;;;20.90;11.55;;;;;;;;;;5054405;28;20048;-70
2022/01/08 12:09:27;;;;;;;19.08;11.15;;;;;;;;;;5053193;28;20049;-71
2022/01/08 12:11:55;;;;;;;17.27;11.82;;;;;;;;;;5052704;28;20658;-71
2022/01/08 12:14:22;;;;;;;23.10;12.95;;;;;;;;;;5052877;28;20037;-71
2022/01/08 12:16:49;;;;;;;22.38;12.45;;;;;;;;;;5086447;28;20056;-71
2022/01/08 12:19:35;;;;;;;24.55;12.57;;;;;;;;;;5052516;28;20041;-70
2022/01/08 12:22:22;;;;;;;20.85;12.48;;;;;;;;;;5069516;28;20127;-70
2022/01/08 12:24:52;;;;;;;24.08;14.23;;;;;;;;;;5052746;28;20080;-70
2022/01/08 12:27:33;;;;;;;21.10;14.30;;;;;;;;;;5069222;28;20044;-70
2022/01/08 12:30:13;;;;;;;30.55;15.75;;;;;;;;;;5072642;28;20139;-70
2022/01/08 12:33:17;;;;;;;28.67;15.70;;;;;;;;;;5072223;28;20471;-70
2022/01/08 12:35:45;;;;;;;29.13;15.98;;;;;;;;;;5073764;28;20049;-70
2022/01/08 12:38:25;;;;;;;25.15;15.50;;;;;;;;;;5072358;28;20051;-70
2022/01/08 12:40:51;;;;;;;22.48;15.55;;;;;;;;;;5071932;28;20127;-70
2022/01/08 12:43:23;;;;;;;24.10;16.15;;;;;;;;;;5072152;28;20048;-70
2022/01/08 12:46:14;;;;;;;30.13;16.30;;;;;;;;;;5072315;28;20048;-70
2022/01/08 12:49:01;;;;;;;31.77;17.55;;;;;;;;;;5070331;28;20182;-70
2022/01/08 12:51:50;;;;;;;25.75;16.52;;;;;;;;;;5071858;28;20072;-70
2022/01/08 12:54:18;;;;;;;28.45;15.65;;;;;;;;;;5072390;28;20555;-70
2022/01/08 12:56:55;;;;;;;28.58;17.50;;;;;;;;;;5054915;28;20075;-70
2022/01/08 12:59:29;;;;;;;26.23;16.50;;;;;;;;;;5055201;28;20064;-70
2022/01/08 13:01:55;;;;;;;31.23;16.73;;;;;;;;;;5071999;28;20090;-70
2022/01/08 13:04:22;;;;;;;29.27;16.45;;;;;;;;;;5072577;28;20040;-70
2022/01/08 13:06:49;;;;;;;29.25;17.80;;;;;;;;;;5071240;28;20041;-70
2022/01/08 13:09:16;;;;;;;29.50;16.38;;;;;;;;;;5071866;28;20494;-70
2022/01/08 13:11:43;;;;;;;21.25;15.27;;;;;;;;;;5071215;28;20515;-70
2022/01/08 13:14:16;;;;;;;25.35;15.38;;;;;;;;;;5071769;28;20250;-70
2022/01/08 13:16:47;;;;;;;26.17;16.20;;;;;;;;;;5071575;28;20054;-70
2022/01/08 13:19:26;;;;;;;28.75;16.90;;;;;;;;;;5071150;28;20518;-70
2022/01/08 13:22:02;;;;;;;27.10;17.30;;;;;;;;;;5073023;28;20032;-70
2022/01/08 13:24:34;;;;;;;33.88;18.23;;;;;;;;;;5071243;28;20075;-70
2022/01/08 13:27:01;;;;;;;25.60;16.48;;;;;;;;;;5053977;28;20099;-70
2022/01/08 13:29:35;;;;;;;26.05;16.45;;;;;;;;;;5071379;28;20483;-70
2022/01/08 13:32:06;;;;;;;28.05;16.67;;;;;;;;;;5071504;28;20037;-70
2022/01/08 13:34:43;;;;;;;27.42;16.20;;;;;;;;;;5070656;28;20106;-70
2022/01/08 13:37:15;;;;;;;26.80;16.33;;;;;;;;;;5071379;28;20423;-70
2022/01/08 13:39:50;;;;;;;29.17;16.77;;;;;;;;;;5088056;28;20040;-70
2022/01/08 13:42:26;;;;;;;29.10;16.75;;;;;;;;;;5104578;28;20056;-70
2022/01/08 13:44:53;;;;;;;;;;;;;;;;;;5071628;28;20048;-71
2022/01/08 13:47:47;;;;;;;29.55;15.27;;;;;;;;;;5103742;28;19966;-70
2022/01/08 13:50:23;;;;;;;24.85;15.45;;;;;;;;;;5071412;28;20055;-70
2022/01/08 13:52:53;;;;;;;26.98;15.95;;;;;;;;;;5072341;28;20124;-70
2022/01/08 13:55:21;;;;;;;31.33;16.90;;;;;;;;;;5071620;28;20051;-71
2022/01/08 13:57:53;;;;;;;31.35;15.95;;;;;;;;;;5072463;28;20075;-70
2022/01/08 14:00:24;;;;;;;27.15;16.33;;;;;;;;;;5072547;28;20032;-70
2022/01/08 14:02:54;;;;;;;27.15;14.50;;;;;;;;;;5069893;28;20044;-70
2022/01/08 14:05:21;;;;;;;24.73;14.25;;;;;;;;;;5070825;28;20037;-70
2022/01/08 14:07:47;;;;;;;26.20;13.77;;;;;;;;;;5105010;28;20510;-70
2022/01/08 14:10:14;;;;;;;30.75;14.88;;;;;;;;;;5071669;28;20533;-70
2022/01/08 14:12:40;;;;;;;26.05;14.30;;;;;;;;;;5070389;28;20036;-70
2022/01/08 14:15:07;;;;;;;30.63;14.90;;;;;;;;;;5070860;28;20532;-70
2022/01/08 14:17:34;;;;;;;25.85;13.93;;;;;;;;;;5069640;28;20456;-70
2022/01/08 14:20:01;;;;;;;28.83;13.88;;;;;;;;;;5070616;28;20052;-70
2022/01/08 14:22:28;;;;;;;29.90;15.07;;;;;;;;;;5070137;28;20037;-70
2022/01/08 14:24:54;;;;;;;29.63;14.88;;;;;;;;;;5070863;28;20037;-70
2022/01/08 14:27:22;;;;;;;31.52;15.60;;;;;;;;;;5054416;28;20056;-71
2022/01/08 14:30:04;;;;;;;30.25;14.85;;;;;;;;;;5050613;28;20059;-70
2022/01/08 14:32:31;;;;;;;29.02;13.23;;;;;;;;;;5049849;28;20430;-70
2022/01/08 14:35:00;;;;;;;29.48;14.40;;;;;;;;;;5050369;28;20052;-70
2022/01/08 14:37:38;;;;;;;39.58;15.30;;;;;;;;;;5050603;28;20053;-70
2022/01/08 14:40:14;;;;;;;23.23;12.60;;;;;;;;;;5049728;28;20039;-70
2022/01/08 14:42:40;;;;;;;25.67;13.55;;;;;;;;;;5050412;28;20044;-71
2022/01/08 14:45:06;;;;;;;27.73;12.18;;;;;;;;;;5050274;28;20039;-70
2022/01/08 14:47:34;;;;;;;25.13;11.88;;;;;;;;;;5049396;28;20368;-70
2022/01/08 14:50:00;;;;;;;24.90;12.93;;;;;;;;;;5050482;28;20519;-70
2022/01/08 14:52:26;;;;;;;21.23;11.65;;;;;;;;;;5051562;28;20041;-70
2022/01/08 14:54:52;;;;;;;22.30;11.80;;;;;;;;;;5049486;28;20523;-70
2022/01/08 14:57:18;;;;;;;25.25;12.40;;;;;;;;;;5051614;28;20064;-70
2022/01/08 14:59:44;;;;;;;22.02;11.60;;;;;;;;;;5050381;28;20464;-70
2022/01/08 15:02:10;;;;;;;25.27;11.65;;;;;;;;;;5049412;28;20487;-70